sensor_id;sensor_type;location;lat;lon;timestamp;P1;durP1;ratioP1;P2;durP2;ratioP2
49340;SDS011;35209;51.050;13.678;2023-01-08T00:03:15;13.95;;;12.05;;
49340;SDS011;35209;51.050;13.678;2023-01-08T00:08:17;14.55;;;13.38;;
49340;SDS011;35209;51.050;13.678;2023-01-08T00:13:18;13.85;;;12.77;;
49340;SDS011;35209;51.050;13.678;2023-01-08T00:18:20;13.63;;;12.57;;
49340;SDS011;35209;51.050;13.678;2023-01-08T00:23:22;13.52;;;12.43;;
49340;SDS011;35209;51.050;13.678;2023-01-08T00:28:24;13.10;;;12.10;;
49340;SDS011;35209;51.050;13.678;2023-01-08T00:33:26;12.43;;;11.52;;
49340;SDS011;35209;51.050;13.678;2023-01-08T00:38:28;13.40;;;12.32;;
49340;SDS011;35209;51.050;13.678;2023-01-08T00:43:30;12.20;;;11.27;;
49340;SDS011;35209;51.050;13.678;2023-01-08T00:48:32;12.40;;;11.40;;
49340;SDS011;35209;51.050;13.678;2023-01-08T00:53:39;13.85;;;12.82;;
49340;SDS011;35209;51.050;13.678;2023-01-08T00:58:41;13.30;;;12.25;;
49340;SDS011;35209;51.050;13.678;2023-01-08T01:03:42;14.68;;;13.57;;
49340;SDS011;35209;51.050;13.678;2023-01-08T01:08:45;13.38;;;12.38;;
49340;SDS011;35209;51.050;13.678;2023-01-08T01:13:47;12.55;;;11.65;;
49340;SDS011;35209;51.050;13.678;2023-01-08T01:18:49;13.70;;;12.70;;
49340;SDS011;35209;51.050;13.678;2023-01-08T01:23:53;14.88;;;13.65;;
49340;SDS011;35209;51.050;13.678;2023-01-08T01:28:56;14.15;;;13.05;;
49340;SDS011;35209;51.050;13.678;2023-01-08T01:33:59;14.45;;;13.07;;
49340;SDS011;35209;51.050;13.678;2023-01-08T01:39:01;14.32;;;13.23;;
49340;SDS011;35209;51.050;13.678;2023-01-08T01:44:48;13.77;;;12.70;;
49340;SDS011;35209;51.050;13.678;2023-01-08T01:49:37;14.30;;;13.00;;
49340;SDS011;35209;51.050;13.678;2023-01-08T01:54:41;14.40;;;13.32;;
49340;SDS011;35209;51.050;13.678;2023-01-08T01:59:43;13.63;;;12.52;;
49340;SDS011;35209;51.050;13.678;2023-01-08T02:04:47;12.75;;;11.75;;
49340;SDS011;35209;51.050;13.678;2023-01-08T02:09:59;13.48;;;12.27;;
49340;SDS011;35209;51.050;13.678;2023-01-08T02:20:36;12.43;;;11.43;;
49340;SDS011;35209;51.050;13.678;2023-01-08T02:30:44;12.98;;;12.05;;
49340;SDS011;35209;51.050;13.678;2023-01-08T02:35:53;12.65;;;11.65;;
49340;SDS011;35209;51.050;13.678;2023-01-08T02:41:11;13.13;;;11.80;;
49340;SDS011;35209;51.050;13.678;2023-01-08T02:46:18;13.63;;;12.63;;
49340;SDS011;35209;51.050;13.678;2023-01-08T02:56:29;13.40;;;12.35;;
49340;SDS011;35209;51.050;13.678;2023-01-08T03:01:34;13.27;;;12.27;;
49340;SDS011;35209;51.050;13.678;2023-01-08T03:06:37;13.77;;;12.57;;
49340;SDS011;35209;51.050;13.678;2023-01-08T03:11:46;13.05;;;11.93;;
49340;SDS011;35209;51.050;13.678;2023-01-08T03:22:19;13.68;;;12.68;;
49340;SDS011;35209;51.050;13.678;2023-01-08T03:27:25;13.93;;;12.77;;
49340;SDS011;35209;51.050;13.678;2023-01-08T03:32:29;14.95;;;13.75;;
49340;SDS011;35209;51.050;13.678;2023-01-08T03:37:32;16.23;;;15.02;;
49340;SDS011;35209;51.050;13.678;2023-01-08T03:42:37;17.42;;;16.05;;
49340;SDS011;35209;51.050;13.678;2023-01-08T03:47:39;17.02;;;15.73;;
49340;SDS011;35209;51.050;13.678;2023-01-08T03:52:43;17.08;;;15.77;;
49340;SDS011;35209;51.050;13.678;2023-01-08T03:57:44;17.40;;;15.82;;
49340;SDS011;35209;51.050;13.678;2023-01-08T04:02:46;16.83;;;15.63;;
49340;SDS011;35209;51.050;13.678;2023-01-08T04:07:48;16.52;;;15.23;;
49340;SDS011;35209;51.050;13.678;2023-01-08T04:12:49;16.63;;;15.35;;
49340;SDS011;35209;51.050;13.678;2023-01-08T04:17:51;18.67;;;17.17;;
49340;SDS011;35209;51.050;13.678;2023-01-08T04:22:54;17.60;;;16.30;;
49340;SDS011;35209;51.050;13.678;2023-01-08T04:27:55;18.77;;;17.27;;
49340;SDS011;35209;51.050;13.678;2023-01-08T04:32:57;18.58;;;17.17;;
49340;SDS011;35209;51.050;13.678;2023-01-08T04:37:58;18.55;;;17.25;;
49340;SDS011;35209;51.050;13.678;2023-01-08T04:43:00;18.45;;;17.05;;
49340;SDS011;35209;51.050;13.678;2023-01-08T04:48:02;17.10;;;15.80;;
49340;SDS011;35209;51.050;13.678;2023-01-08T04:53:04;18.77;;;17.27;;
49340;SDS011;35209;51.050;13.678;2023-01-08T04:58:05;17.98;;;16.58;;
49340;SDS011;35209;51.050;13.678;2023-01-08T05:03:07;17.17;;;15.88;;
49340;SDS011;35209;51.050;13.678;2023-01-08T05:08:09;16.50;;;15.30;;
49340;SDS011;35209;51.050;13.678;2023-01-08T05:13:10;17.15;;;15.90;;
49340;SDS011;35209;51.050;13.678;2023-01-08T05:18:12;17.75;;;16.45;;
49340;SDS011;35209;51.050;13.678;2023-01-08T05:23:14;17.77;;;16.17;;
49340;SDS011;35209;51.050;13.678;2023-01-08T05:28:16;18.08;;;16.77;;
49340;SDS011;35209;51.050;13.678;2023-01-08T05:33:17;17.00;;;15.82;;
49340;SDS011;35209;51.050;13.678;2023-01-08T05:38:19;17.55;;;16.25;;
49340;SDS011;35209;51.050;13.678;2023-01-08T05:43:21;18.65;;;17.25;;
49340;SDS011;35209;51.050;13.678;2023-01-08T05:48:23;18.38;;;16.98;;
49340;SDS011;35209;51.050;13.678;2023-01-08T05:53:25;18.85;;;17.30;;
49340;SDS011;35209;51.050;13.678;2023-01-08T05:58:26;19.48;;;17.98;;
49340;SDS011;35209;51.050;13.678;2023-01-08T06:03:28;19.17;;;17.58;;
49340;SDS011;35209;51.050;13.678;2023-01-08T06:08:30;18.20;;;16.90;;
49340;SDS011;35209;51.050;13.678;2023-01-08T06:13:33;19.92;;;18.40;;
49340;SDS011;35209;51.050;13.678;2023-01-08T06:18:35;20.05;;;18.40;;
49340;SDS011;35209;51.050;13.678;2023-01-08T06:23:37;20.55;;;18.90;;
49340;SDS011;35209;51.050;13.678;2023-01-08T06:28:39;19.75;;;18.33;;
49340;SDS011;35209;51.050;13.678;2023-01-08T06:33:41;20.50;;;18.83;;
49340;SDS011;35209;51.050;13.678;2023-01-08T06:38:42;22.10;;;20.15;;
49340;SDS011;35209;51.050;13.678;2023-01-08T06:43:45;21.77;;;20.00;;
49340;SDS011;35209;51.050;13.678;2023-01-08T06:48:47;22.48;;;20.50;;
49340;SDS011;35209;51.050;13.678;2023-01-08T06:53:50;23.15;;;21.17;;
49340;SDS011;35209;51.050;13.678;2023-01-08T06:58:51;22.45;;;20.65;;
49340;SDS011;35209;51.050;13.678;2023-01-08T07:03:53;21.30;;;19.67;;
49340;SDS011;35209;51.050;13.678;2023-01-08T07:08:56;22.08;;;20.23;;
49340;SDS011;35209;51.050;13.678;2023-01-08T07:13:58;22.25;;;20.50;;
49340;SDS011;35209;51.050;13.678;2023-01-08T07:18:59;21.88;;;19.83;;
49340;SDS011;35209;51.050;13.678;2023-01-08T07:24:01;20.83;;;19.08;;
49340;SDS011;35209;51.050;13.678;2023-01-08T07:29:02;21.30;;;19.35;;
49340;SDS011;35209;51.050;13.678;2023-01-08T07:34:04;22.35;;;20.35;;
49340;SDS011;35209;51.050;13.678;2023-01-08T07:39:06;21.95;;;20.15;;
49340;SDS011;35209;51.050;13.678;2023-01-08T07:44:08;20.95;;;19.35;;
49340;SDS011;35209;51.050;13.678;2023-01-08T07:49:11;20.48;;;18.77;;
49340;SDS011;35209;51.050;13.678;2023-01-08T07:54:12;21.10;;;19.23;;
49340;SDS011;35209;51.050;13.678;2023-01-08T07:59:14;18.55;;;17.15;;
49340;SDS011;35209;51.050;13.678;2023-01-08T08:04:16;19.38;;;17.88;;
49340;SDS011;35209;51.050;13.678;2023-01-08T08:09:18;20.85;;;19.15;;
49340;SDS011;35209;51.050;13.678;2023-01-08T08:14:19;18.80;;;17.38;;
49340;SDS011;35209;51.050;13.678;2023-01-08T08:19:21;18.27;;;16.83;;
49340;SDS011;35209;51.050;13.678;2023-01-08T08:24:23;18.95;;;17.40;;
49340;SDS011;35209;51.050;13.678;2023-01-08T08:29:24;19.42;;;17.83;;
49340;SDS011;35209;51.050;13.678;2023-01-08T08:34:26;17.77;;;16.38;;
49340;SDS011;35209;51.050;13.678;2023-01-08T08:39:28;19.30;;;17.70;;
49340;SDS011;35209;51.050;13.678;2023-01-08T08:44:29;18.05;;;16.55;;
49340;SDS011;35209;51.050;13.678;2023-01-08T08:49:31;17.58;;;16.17;;
49340;SDS011;35209;51.050;13.678;2023-01-08T08:54:33;16.60;;;15.10;;
49340;SDS011;35209;51.050;13.678;2023-01-08T08:59:35;16.33;;;14.98;;
49340;SDS011;35209;51.050;13.678;2023-01-08T09:04:37;15.73;;;14.52;;
49340;SDS011;35209;51.050;13.678;2023-01-08T09:09:39;15.65;;;14.45;;
49340;SDS011;35209;51.050;13.678;2023-01-08T09:14:41;15.85;;;14.63;;
49340;SDS011;35209;51.050;13.678;2023-01-08T09:19:42;15.18;;;13.98;;
49340;SDS011;35209;51.050;13.678;2023-01-08T09:24:44;14.55;;;13.35;;
49340;SDS011;35209;51.050;13.678;2023-01-08T09:29:46;14.55;;;13.45;;
49340;SDS011;35209;51.050;13.678;2023-01-08T09:34:48;13.90;;;12.73;;
49340;SDS011;35209;51.050;13.678;2023-01-08T09:39:50;13.70;;;12.63;;
49340;SDS011;35209;51.050;13.678;2023-01-08T09:45:02;15.25;;;13.95;;
49340;SDS011;35209;51.050;13.678;2023-01-08T09:50:08;14.35;;;13.05;;
49340;SDS011;35209;51.050;13.678;2023-01-08T09:55:13;13.68;;;12.63;;
49340;SDS011;35209;51.050;13.678;2023-01-08T10:00:18;13.75;;;12.65;;
49340;SDS011;35209;51.050;13.678;2023-01-08T10:05:25;12.93;;;11.88;;
49340;SDS011;35209;51.050;13.678;2023-01-08T10:10:29;13.05;;;11.95;;
49340;SDS011;35209;51.050;13.678;2023-01-08T10:15:32;13.18;;;12.18;;
49340;SDS011;35209;51.050;13.678;2023-01-08T10:20:34;13.20;;;12.10;;
49340;SDS011;35209;51.050;13.678;2023-01-08T10:25:46;13.27;;;11.90;;
49340;SDS011;35209;51.050;13.678;2023-01-08T10:31:05;12.90;;;11.98;;
49340;SDS011;35209;51.050;13.678;2023-01-08T10:36:12;12.20;;;11.30;;
49340;SDS011;35209;51.050;13.678;2023-01-08T10:41:17;12.05;;;11.05;;
49340;SDS011;35209;51.050;13.678;2023-01-08T10:51:37;12.32;;;11.32;;
49340;SDS011;35209;51.050;13.678;2023-01-08T10:56:50;11.30;;;10.27;;
49340;SDS011;35209;51.050;13.678;2023-01-08T11:01:55;11.90;;;10.90;;
49340;SDS011;35209;51.050;13.678;2023-01-08T11:07:02;11.10;;;10.20;;
49340;SDS011;35209;51.050;13.678;2023-01-08T11:17:37;12.18;;;11.27;;
49340;SDS011;35209;51.050;13.678;2023-01-08T11:22:39;11.68;;;10.55;;
49340;SDS011;35209;51.050;13.678;2023-01-08T11:27:41;10.55;;;9.75;;
49340;SDS011;35209;51.050;13.678;2023-01-08T11:32:49;10.32;;;9.63;;
49340;SDS011;35209;51.050;13.678;2023-01-08T11:38:01;11.25;;;10.25;;
49340;SDS011;35209;51.050;13.678;2023-01-08T11:43:24;11.80;;;10.90;;
49340;SDS011;35209;51.050;13.678;2023-01-08T11:53:39;11.60;;;10.70;;
49340;SDS011;35209;51.050;13.678;2023-01-08T11:58:58;11.25;;;10.35;;
49340;SDS011;35209;51.050;13.678;2023-01-08T12:09:44;12.00;;;11.00;;
49340;SDS011;35209;51.050;13.678;2023-01-08T12:20:23;11.45;;;10.55;;
49340;SDS011;35209;51.050;13.678;2023-01-08T12:25:36;10.80;;;9.98;;
49340;SDS011;35209;51.050;13.678;2023-01-08T12:36:02;11.65;;;10.50;;
49340;SDS011;35209;51.050;13.678;2023-01-08T12:41:16;11.32;;;10.43;;
49340;SDS011;35209;51.050;13.678;2023-01-08T12:46:19;11.55;;;10.60;;
49340;SDS011;35209;51.050;13.678;2023-01-08T12:51:33;10.93;;;9.93;;
49340;SDS011;35209;51.050;13.678;2023-01-08T12:56:49;10.95;;;10.05;;
49340;SDS011;35209;51.050;13.678;2023-01-08T13:02:01;11.93;;;10.40;;
49340;SDS011;35209;51.050;13.678;2023-01-08T13:07:24;12.75;;;11.75;;
49340;SDS011;35209;51.050;13.678;2023-01-08T13:12:34;13.40;;;12.25;;
49340;SDS011;35209;51.050;13.678;2023-01-08T13:17:38;10.90;;;10.00;;
49340;SDS011;35209;51.050;13.678;2023-01-08T13:22:39;9.70;;;8.90;;
49340;SDS011;35209;51.050;13.678;2023-01-08T13:27:42;9.02;;;8.23;;
49340;SDS011;35209;51.050;13.678;2023-01-08T13:32:46;22.73;;;20.05;;
49340;SDS011;35209;51.050;13.678;2023-01-08T13:37:49;21.48;;;19.58;;
49340;SDS011;35209;51.050;13.678;2023-01-08T13:43:13;12.20;;;11.13;;
49340;SDS011;35209;51.050;13.678;2023-01-08T13:48:20;12.35;;;11.20;;
49340;SDS011;35209;51.050;13.678;2023-01-08T13:53:23;11.75;;;10.75;;
49340;SDS011;35209;51.050;13.678;2023-01-08T13:58:26;10.82;;;9.77;;
49340;SDS011;35209;51.050;13.678;2023-01-08T14:03:33;10.32;;;9.43;;
49340;SDS011;35209;51.050;13.678;2023-01-08T14:08:48;12.10;;;11.10;;
49340;SDS011;35209;51.050;13.678;2023-01-08T14:14:00;15.00;;;12.23;;
49340;SDS011;35209;51.050;13.678;2023-01-08T14:19:02;13.50;;;12.30;;
49340;SDS011;35209;51.050;13.678;2023-01-08T14:24:05;12.10;;;11.00;;
49340;SDS011;35209;51.050;13.678;2023-01-08T14:29:12;15.27;;;14.13;;
49340;SDS011;35209;51.050;13.678;2023-01-08T14:34:16;12.10;;;11.10;;
49340;SDS011;35209;51.050;13.678;2023-01-08T14:39:23;13.70;;;12.57;;
49340;SDS011;35209;51.050;13.678;2023-01-08T14:44:32;13.63;;;12.15;;
49340;SDS011;35209;51.050;13.678;2023-01-08T14:49:42;11.70;;;10.70;;
49340;SDS011;35209;51.050;13.678;2023-01-08T14:54:46;14.35;;;13.07;;
49340;SDS011;35209;51.050;13.678;2023-01-08T14:59:57;15.45;;;14.05;;
49340;SDS011;35209;51.050;13.678;2023-01-08T15:15:40;14.68;;;13.38;;
49340;SDS011;35209;51.050;13.678;2023-01-08T15:20:54;16.23;;;14.63;;
49340;SDS011;35209;51.050;13.678;2023-01-08T15:25:57;14.13;;;12.93;;
49340;SDS011;35209;51.050;13.678;2023-01-08T15:30:59;14.88;;;13.50;;
49340;SDS011;35209;51.050;13.678;2023-01-08T15:36:01;13.77;;;12.57;;
49340;SDS011;35209;51.050;13.678;2023-01-08T15:41:02;12.60;;;11.57;;
49340;SDS011;35209;51.050;13.678;2023-01-08T15:46:06;14.10;;;12.90;;
49340;SDS011;35209;51.050;13.678;2023-01-08T15:51:11;14.75;;;13.45;;
49340;SDS011;35209;51.050;13.678;2023-01-08T15:56:13;14.60;;;13.40;;
49340;SDS011;35209;51.050;13.678;2023-01-08T16:01:16;14.98;;;13.68;;
49340;SDS011;35209;51.050;13.678;2023-01-08T16:11:49;15.13;;;13.82;;
49340;SDS011;35209;51.050;13.678;2023-01-08T16:16:51;10.65;;;9.82;;
49340;SDS011;35209;51.050;13.678;2023-01-08T16:21:53;10.80;;;9.52;;
49340;SDS011;35209;51.050;13.678;2023-01-08T16:26:54;11.45;;;10.50;;
49340;SDS011;35209;51.050;13.678;2023-01-08T16:31:56;11.00;;;10.00;;
49340;SDS011;35209;51.050;13.678;2023-01-08T16:37:01;13.05;;;12.05;;
49340;SDS011;35209;51.050;13.678;2023-01-08T16:42:03;11.73;;;10.82;;
49340;SDS011;35209;51.050;13.678;2023-01-08T16:47:09;13.63;;;12.43;;
49340;SDS011;35209;51.050;13.678;2023-01-08T16:52:11;12.45;;;11.52;;
49340;SDS011;35209;51.050;13.678;2023-01-08T16:57:13;13.07;;;12.07;;
49340;SDS011;35209;51.050;13.678;2023-01-08T17:02:15;12.00;;;11.10;;
49340;SDS011;35209;51.050;13.678;2023-01-08T17:07:17;13.15;;;12.25;;
49340;SDS011;35209;51.050;13.678;2023-01-08T17:12:19;13.27;;;12.27;;
49340;SDS011;35209;51.050;13.678;2023-01-08T17:17:22;13.88;;;12.77;;
49340;SDS011;35209;51.050;13.678;2023-01-08T17:22:24;13.95;;;12.68;;
49340;SDS011;35209;51.050;13.678;2023-01-08T17:27:27;12.90;;;12.00;;
49340;SDS011;35209;51.050;13.678;2023-01-08T17:32:29;13.02;;;12.02;;
49340;SDS011;35209;51.050;13.678;2023-01-08T17:37:31;13.32;;;11.95;;
49340;SDS011;35209;51.050;13.678;2023-01-08T17:42:35;12.73;;;11.82;;
49340;SDS011;35209;51.050;13.678;2023-01-08T17:47:37;14.73;;;13.63;;
49340;SDS011;35209;51.050;13.678;2023-01-08T17:52:39;12.93;;;12.02;;
49340;SDS011;35209;51.050;13.678;2023-01-08T17:57:41;13.38;;;12.38;;
49340;SDS011;35209;51.050;13.678;2023-01-08T18:02:45;13.90;;;12.90;;
49340;SDS011;35209;51.050;13.678;2023-01-08T18:07:47;14.93;;;13.82;;
49340;SDS011;35209;51.050;13.678;2023-01-08T18:12:49;15.88;;;14.60;;
49340;SDS011;35209;51.050;13.678;2023-01-08T18:17:51;17.50;;;16.20;;
49340;SDS011;35209;51.050;13.678;2023-01-08T18:22:55;17.52;;;16.15;;
49340;SDS011;35209;51.050;13.678;2023-01-08T18:27:57;17.02;;;15.63;;
49340;SDS011;35209;51.050;13.678;2023-01-08T18:32:59;19.35;;;17.95;;
49340;SDS011;35209;51.050;13.678;2023-01-08T18:38:01;20.38;;;18.70;;
49340;SDS011;35209;51.050;13.678;2023-01-08T18:43:02;20.58;;;19.08;;
49340;SDS011;35209;51.050;13.678;2023-01-08T18:48:05;22.83;;;21.02;;
49340;SDS011;35209;51.050;13.678;2023-01-08T18:53:09;23.88;;;21.98;;
49340;SDS011;35209;51.050;13.678;2023-01-08T18:58:11;23.50;;;21.70;;
49340;SDS011;35209;51.050;13.678;2023-01-08T19:03:13;25.60;;;23.13;;
49340;SDS011;35209;51.050;13.678;2023-01-08T19:08:15;26.40;;;24.13;;
49340;SDS011;35209;51.050;13.678;2023-01-08T19:13:17;26.98;;;24.35;;
49340;SDS011;35209;51.050;13.678;2023-01-08T19:18:19;26.05;;;23.92;;
49340;SDS011;35209;51.050;13.678;2023-01-08T19:23:27;27.02;;;24.67;;
49340;SDS011;35209;51.050;13.678;2023-01-08T19:28:29;26.10;;;23.70;;
49340;SDS011;35209;51.050;13.678;2023-01-08T19:33:31;27.20;;;24.95;;
49340;SDS011;35209;51.050;13.678;2023-01-08T19:38:34;26.30;;;24.05;;
49340;SDS011;35209;51.050;13.678;2023-01-08T19:43:36;26.52;;;24.00;;
49340;SDS011;35209;51.050;13.678;2023-01-08T19:48:43;25.50;;;23.23;;
49340;SDS011;35209;51.050;13.678;2023-01-08T19:53:45;26.70;;;24.50;;
49340;SDS011;35209;51.050;13.678;2023-01-08T19:58:48;24.73;;;22.38;;
49340;SDS011;35209;51.050;13.678;2023-01-08T20:03:54;23.77;;;21.73;;
49340;SDS011;35209;51.050;13.678;2023-01-08T20:08:57;23.00;;;21.20;;
49340;SDS011;35209;51.050;13.678;2023-01-08T20:14:00;22.50;;;20.60;;
49340;SDS011;35209;51.050;13.678;2023-01-08T20:19:05;23.90;;;22.08;;
49340;SDS011;35209;51.050;13.678;2023-01-08T20:24:09;23.35;;;21.42;;
49340;SDS011;35209;51.050;13.678;2023-01-08T20:29:15;24.17;;;22.23;;
49340;SDS011;35209;51.050;13.678;2023-01-08T20:34:17;24.00;;;22.30;;
49340;SDS011;35209;51.050;13.678;2023-01-08T20:39:19;23.25;;;21.30;;
49340;SDS011;35209;51.050;13.678;2023-01-08T20:44:27;22.48;;;20.70;;
49340;SDS011;35209;51.050;13.678;2023-01-08T20:49:29;21.52;;;20.02;;
49340;SDS011;35209;51.050;13.678;2023-01-08T20:54:32;23.80;;;21.77;;
49340;SDS011;35209;51.050;13.678;2023-01-08T20:59:34;22.38;;;20.67;;
49340;SDS011;35209;51.050;13.678;2023-01-08T21:04:36;24.10;;;22.00;;
49340;SDS011;35209;51.050;13.678;2023-01-08T21:09:42;24.92;;;22.75;;
49340;SDS011;35209;51.050;13.678;2023-01-08T21:14:44;25.35;;;22.83;;
49340;SDS011;35209;51.050;13.678;2023-01-08T21:19:46;23.95;;;22.15;;
49340;SDS011;35209;51.050;13.678;2023-01-08T21:24:47;25.98;;;23.27;;
49340;SDS011;35209;51.050;13.678;2023-01-08T21:29:53;25.95;;;23.92;;
49340;SDS011;35209;51.050;13.678;2023-01-08T21:34:54;25.42;;;23.33;;
49340;SDS011;35209;51.050;13.678;2023-01-08T21:39:56;26.38;;;24.38;;
49340;SDS011;35209;51.050;13.678;2023-01-08T21:44:58;25.70;;;23.60;;
49340;SDS011;35209;51.050;13.678;2023-01-08T21:50:19;24.40;;;22.20;;
49340;SDS011;35209;51.050;13.678;2023-01-08T21:55:21;24.77;;;22.40;;
49340;SDS011;35209;51.050;13.678;2023-01-08T22:00:22;25.17;;;22.85;;
49340;SDS011;35209;51.050;13.678;2023-01-08T22:05:25;23.88;;;21.98;;
49340;SDS011;35209;51.050;13.678;2023-01-08T22:10:28;23.75;;;21.52;;
49340;SDS011;35209;51.050;13.678;2023-01-08T22:15:29;21.95;;;20.15;;
49340;SDS011;35209;51.050;13.678;2023-01-08T22:20:31;22.60;;;20.75;;
49340;SDS011;35209;51.050;13.678;2023-01-08T22:25:37;23.02;;;21.02;;
49340;SDS011;35209;51.050;13.678;2023-01-08T22:30:39;24.60;;;22.60;;
49340;SDS011;35209;51.050;13.678;2023-01-08T22:35:41;24.30;;;22.25;;
49340;SDS011;35209;51.050;13.678;2023-01-08T22:40:43;21.23;;;19.60;;
49340;SDS011;35209;51.050;13.678;2023-01-08T22:45:54;23.95;;;21.50;;
49340;SDS011;35209;51.050;13.678;2023-01-08T22:51:01;22.65;;;20.75;;
49340;SDS011;35209;51.050;13.678;2023-01-08T22:56:07;22.52;;;20.73;;
49340;SDS011;35209;51.050;13.678;2023-01-08T23:01:16;21.10;;;19.40;;
49340;SDS011;35209;51.050;13.678;2023-01-08T23:06:23;22.35;;;20.33;;
49340;SDS011;35209;51.050;13.678;2023-01-08T23:11:27;21.38;;;19.60;;
49340;SDS011;35209;51.050;13.678;2023-01-08T23:16:29;21.88;;;20.17;;
49340;SDS011;35209;51.050;13.678;2023-01-08T23:21:31;21.23;;;19.40;;
49340;SDS011;35209;51.050;13.678;2023-01-08T23:26:32;22.85;;;21.05;;
49340;SDS011;35209;51.050;13.678;2023-01-08T23:31:34;21.13;;;19.48;;
49340;SDS011;35209;51.050;13.678;2023-01-08T23:36:38;22.65;;;20.80;;
49340;SDS011;35209;51.050;13.678;2023-01-08T23:41:41;21.08;;;19.48;;
49340;SDS011;35209;51.050;13.678;2023-01-08T23:46:42;22.02;;;20.13;;
49340;SDS011;35209;51.050;13.678;2023-01-08T23:51:44;20.20;;;18.70;;
49340;SDS011;35209;51.050;13.678;2023-01-08T23:56:46;21.33;;;19.45;;
